Dati Storici

Data ora Umidita' aria (%) Temperatura aria (°C) Rad globale (W/m²) Gonioanemometro (°) Tacoanemometro (m/s) Pioggia (mm)
08-11-2012 00:50 86.8 % 6.858 1.367 10.765 0.849 0
08-11-2012 00:40 85.6 % 6.847 0.918 131.745 -0.001 0
08-11-2012 00:30 85.2 % 7.256 1.251 70.543 0.407 0
08-11-2012 00:20 83.8 % 7.637 0.943 97.862 0.14 0
08-11-2012 00:10 82.7 % 7.946 0.622 331.582 0.707 0
08-11-2012 00:00 83 % 8.596 0.876 272.259 0.601 0
07-11-2012 23:50 82.7 % 8.873 1.082 315.423 0.509 0
07-11-2012 23:40 84.7 % 8.796 0.71 284.391 1.519 0
07-11-2012 23:30 84.9 % 7.895 0.893 289.345 0.563 0
07-11-2012 23:20 82.9 % 7.727 0.829 221.031 0.199 0
07-11-2012 23:10 81.8 % 8.081 0.919 334.453 -0.005 0
07-11-2012 23:00 82.1 % 8.721 1.33 295.919 0.198 0
07-11-2012 22:50 80.8 % 8.298 0.945 236.54 -0.004 0
07-11-2012 22:40 78.2 % 8.514 0.611 198.33 -0.005 0
07-11-2012 22:30 78.3 % 9.484 1.163 279.313 0.17 0
07-11-2012 22:20 78.7 % 9.478 1.049 153.948 1.293 0
07-11-2012 22:10 77 % 9.069 0.766 267.02 -0.008 0
07-11-2012 22:00 76.3 % 9.413 0.638 251.863 0.102 0
07-11-2012 21:50 75.7 % 9.727 0.92 108.658 0.352 0
07-11-2012 21:40 75.8 % 10.064 0.92 158.521 0.139 0

I dati sono presentati in modo automatico a scopo informativo. In seguito a verifica i dati possono subire modifiche o essere invalidati e non riportati negli archivi definitivi.